Time;durP1;ratioP1;P1;durP2;ratioP2;P2;SDS_P1;SDS_P2;PMS_P1;PMS_P2;Temp;Humidity;BMP_temperature;BMP_pressure;BME280_temperature;BME280_humidity;BME280_pressure;Samples;Min_cycle;Max_cycle;Signal;HPM_P1;HPM_P2
2023/10/14 00:06:02;;;;;;;120.30;24.00;;;;;;;;;;106868;1285;59934;-91
2023/10/14 00:11:35;;;;;;;125.60;24.40;;;;;;;;;;106898;1285;59182;-92
2023/10/14 00:17:11;;;;;;;120.80;27.00;;;;;;;;;;106925;1285;58359;-92
2023/10/14 00:22:39;;;;;;;64.90;26.10;;;;;;;;;;106884;1285;60648;-91
2023/10/14 00:25:15;;;;;;;113.60;28.10;;;;;;;;;;106763;1286;58348;-91
2023/10/14 00:27:42;;;;;;;94.60;27.20;;;;;;;;;;106818;1285;58272;-91
2023/10/14 00:33:12;;;;;;;129.00;24.80;;;;;;;;;;106938;1285;60947;-92
2023/10/14 00:35:40;;;;;;;161.30;28.00;;;;;;;;;;106797;1285;61654;-91
2023/10/14 00:38:08;;;;;;;215.50;29.70;;;;;;;;;;106870;1285;60474;-91
2023/10/14 00:46:50;;;;;;;213.50;30.60;;;;;;;;;;106975;1285;59979;-93
2023/10/14 00:52:19;;;;;;;244.50;34.50;;;;;;;;;;106917;1285;58473;-93
2023/10/14 00:57:54;;;;;;;195.30;33.80;;;;;;;;;;106884;1285;58167;-92
2023/10/14 01:00:22;;;;;;;201.30;33.40;;;;;;;;;;106867;1285;62234;-92
2023/10/14 01:05:53;;;;;;;125.70;29.10;;;;;;;;;;106964;1285;59693;-93
2023/10/14 01:08:22;;;;;;;106.60;27.20;;;;;;;;;;106852;1285;58237;-93
2023/10/14 01:10:49;;;;;;;193.70;32.70;;;;;;;;;;106587;1288;58423;-93
2023/10/14 01:13:16;;;;;;;197.30;34.60;;;;;;;;;;106571;1288;61934;-92
2023/10/14 01:15:44;;;;;;;139.80;30.40;;;;;;;;;;106414;1288;61708;-92
2023/10/14 01:18:14;;;;;;;162.10;31.20;;;;;;;;;;106511;1288;59649;-92
2023/10/14 01:20:40;;;;;;;103.50;28.80;;;;;;;;;;106370;1288;58178;-92
2023/10/14 01:23:24;;;;;;;180.00;32.50;;;;;;;;;;106422;1288;58275;-93
2023/10/14 01:25:52;;;;;;;121.70;30.40;;;;;;;;;;106482;1288;62001;-93
2023/10/14 01:28:22;;;;;;;228.80;36.00;;;;;;;;;;106485;1288;61837;-93
2023/10/14 01:33:53;;;;;;;216.80;31.90;;;;;;;;;;106558;1288;58522;-92
2023/10/14 01:39:25;;;;;;;144.50;28.10;;;;;;;;;;106605;1288;60808;-93
2023/10/14 01:41:53;;;;;;;230.60;25.50;;;;;;;;;;106729;1285;61659;-94
2023/10/14 01:44:36;;;;;;;198.10;25.30;;;;;;;;;;106449;1289;58857;-93
2023/10/14 01:47:02;;;;;;;122.90;20.20;;;;;;;;;;106446;1289;59358;-93
2023/10/14 01:49:47;;;;;;;188.50;24.00;;;;;;;;;;106139;1293;58340;-93
2023/10/14 01:52:19;;;;;;;160.70;19.80;;;;;;;;;;106175;1293;58348;-93
2023/10/14 01:57:50;;;;;;;104.70;19.00;;;;;;;;;;106235;1292;59424;-93
2023/10/14 02:03:21;;;;;;;207.50;20.10;;;;;;;;;;106354;1292;58239;-94
2023/10/14 02:13:00;;;;;;;148.90;18.40;;;;;;;;;;106511;1286;602877;31
2023/10/14 02:18:23;;;;;;;130.00;19.10;;;;;;;;;;107232;1284;58359;31
2023/10/14 02:32:37;;;;;;;;;;;;;;;;;;;;;
2023/10/14 03:16:26;;;;;;;131.50;25.30;;;;;;;;;;102991;1292;60437;-89
2023/10/14 03:26:58;;;;;;;127.20;25.00;;;;;;;;;;103805;1286;60140;-91
2023/10/14 03:34:00;;;;;;;153.40;29.90;;;;;;;;;;103229;1289;601179;-91
2023/10/14 03:42:52;;;;;;;155.20;31.00;;;;;;;;;;103709;1288;60326;-89
2023/10/14 03:45:22;;;;;;;222.60;41.50;;;;;;;;;;104087;1287;60358;-90
2023/10/14 03:47:59;;;;;;;192.60;39.20;;;;;;;;;;103841;1287;60403;-90
2023/10/14 03:50:24;;;;;;;186.50;34.60;;;;;;;;;;103999;1282;61595;-90
2023/10/14 03:56:22;;;;;;;203.40;34.20;;;;;;;;;;103120;1292;60355;-89
2023/10/14 03:58:49;;;;;;;214.90;35.20;;;;;;;;;;103177;1288;60371;-90
2023/10/14 04:01:22;;;;;;;189.50;34.90;;;;;;;;;;103452;1292;60390;-90
2023/10/14 04:03:51;;;;;;;156.00;32.30;;;;;;;;;;103554;1291;61909;-91
2023/10/14 04:06:19;;;;;;;139.40;30.10;;;;;;;;;;103269;1285;394856;-89
2023/10/14 04:08:48;;;;;;;199.80;32.90;;;;;;;;;;103663;1284;60374;-90
2023/10/14 04:11:35;;;;;;;191.50;35.30;;;;;;;;;;103510;1286;600294;-90
2023/10/14 04:14:22;;;;;;;181.40;32.90;;;;;;;;;;103001;1294;600687;-90
2023/10/14 04:31:06;;;;;;;235.40;35.30;;;;;;;;;;103820;1290;61031;-93
2023/10/14 04:33:44;;;;;;;247.60;38.10;;;;;;;;;;106753;1286;61199;-92
2023/10/14 04:42:04;;;;;;;205.20;35.40;;;;;;;;;;107093;1284;58388;-94
2023/10/14 04:44:36;;;;;;;260.00;40.30;;;;;;;;;;107035;1285;58694;-91
2023/10/14 04:47:02;;;;;;;274.70;41.40;;;;;;;;;;107003;1283;60813;-92
2023/10/14 04:49:37;;;;;;;280.20;41.50;;;;;;;;;;106922;1283;58210;-91
2023/10/14 04:52:05;;;;;;;220.80;40.50;;;;;;;;;;107004;1283;58126;-91
2023/10/14 04:54:34;;;;;;;209.70;38.90;;;;;;;;;;107017;1283;58027;-93
2023/10/14 04:56:59;;;;;;;216.70;40.00;;;;;;;;;;107012;1284;60264;-89
2023/10/14 05:05:33;;;;;;;260.00;41.80;;;;;;;;;;106985;1283;58245;-92
2023/10/14 05:11:03;;;;;;;294.50;46.10;;;;;;;;;;107033;1283;59076;-92
2023/10/14 05:13:31;;;;;;;299.80;46.20;;;;;;;;;;107019;1284;60669;-92
2023/10/14 05:19:11;;;;;;;307.50;44.90;;;;;;;;;;107050;1283;58075;-93
2023/10/14 05:21:42;;;;;;;212.80;37.90;;;;;;;;;;106988;1283;58173;-93
2023/10/14 05:24:09;;;;;;;282.10;41.60;;;;;;;;;;107082;1284;59274;-92
2023/10/14 05:26:48;;;;;;;249.10;38.80;;;;;;;;;;106767;1286;61909;-95
2023/10/14 05:45:34;;;;;;;193.40;35.90;;;;;;;;;;97614;1289;10193036;-92
2023/10/14 05:48:03;;;;;;;216.60;36.40;;;;;;;;;;104030;1292;60682;-91
2023/10/14 05:55:39;;;;;;;229.00;36.50;;;;;;;;;;104997;1282;599442;-92
2023/10/14 06:04:50;;;;;;;141.60;32.10;;;;;;;;;;104189;1290;60274;-92
2023/10/14 06:13:21;;;;;;;162.20;30.90;;;;;;;;;;106760;1286;60370;-92
2023/10/14 06:15:46;;;;;;;149.60;30.20;;;;;;;;;;106549;1287;483306;-91
2023/10/14 06:27:24;;;;;;;130.80;28.40;;;;;;;;;;106684;1286;60407;-89
2023/10/14 06:29:50;;;;;;;110.00;29.60;;;;;;;;;;106673;1286;59467;-89
2023/10/14 06:32:18;;;;;;;105.40;26.10;;;;;;;;;;106666;1286;58295;-90
2023/10/14 06:37:47;;;;;;;107.10;24.30;;;;;;;;;;106603;1288;58943;-91
2023/10/14 06:46:19;;;;;;;85.80;23.20;;;;;;;;;;106637;1288;58854;-90
2023/10/14 06:48:52;;;;;;;69.90;23.40;;;;;;;;;;106357;1286;58384;-88
2023/10/14 06:51:18;;;;;;;70.90;21.30;;;;;;;;;;106648;1287;60313;-88
2023/10/14 06:53:44;;;;;;;71.20;21.70;;;;;;;;;;106522;1286;60750;-88
2023/10/14 06:56:11;;;;;;;80.40;18.00;;;;;;;;;;106492;1286;58330;-89
2023/10/14 06:58:39;;;;;;;69.00;18.80;;;;;;;;;;106529;1286;58222;-89
2023/10/14 07:01:05;;;;;;;99.90;21.30;;;;;;;;;;106600;1286;58098;-89
2023/10/14 07:06:33;;;;;;;73.70;19.60;;;;;;;;;;106632;1286;59699;-88
2023/10/14 07:09:00;;;;;;;95.20;20.80;;;;;;;;;;106660;1286;58233;-88
2023/10/14 07:11:29;;;;;;;67.10;23.10;;;;;;;;;;106644;1287;58159;-89
2023/10/14 07:13:55;;;;;;;73.90;22.40;;;;;;;;;;106366;1288;58009;-88
2023/10/14 07:19:23;;;;;;;62.30;22.20;;;;;;;;;;106704;1285;59296;-89
2023/10/14 07:21:49;;;;;;;64.60;21.30;;;;;;;;;;107036;1283;58178;-89
2023/10/14 07:24:14;;;;;;;53.30;22.10;;;;;;;;;;106917;1283;58119;-89
2023/10/14 07:26:40;;;;;;;68.40;22.10;;;;;;;;;;107078;1283;58319;-88
2023/10/14 07:29:06;;;;;;;63.60;22.00;;;;;;;;;;106934;1283;58246;-90
2023/10/14 07:31:32;;;;;;;49.70;21.90;;;;;;;;;;107103;1283;58280;-88
2023/10/14 07:34:08;;;;;;;51.60;22.10;;;;;;;;;;107027;1283;58074;-89
2023/10/14 07:36:36;;;;;;;56.40;23.00;;;;;;;;;;107089;1283;58109;-89
2023/10/14 07:42:09;;;;;;;52.50;23.60;;;;;;;;;;107105;1283;60666;-89
2023/10/14 07:44:37;;;;;;;58.90;22.40;;;;;;;;;;107041;1283;59440;-89
2023/10/14 07:47:05;;;;;;;45.60;23.10;;;;;;;;;;106797;1283;58127;-88
2023/10/14 07:49:32;;;;;;;48.50;22.60;;;;;;;;;;106746;1285;58354;-88
2023/10/14 07:52:00;;;;;;;51.10;23.20;;;;;;;;;;106928;1283;58879;-88
2023/10/14 07:57:28;;;;;;;43.40;21.10;;;;;;;;;;107022;1283;58574;-87
2023/10/14 07:59:59;;;;;;;42.20;21.90;;;;;;;;;;107041;1283;58574;-87
2023/10/14 08:02:26;;;;;;;42.50;21.00;;;;;;;;;;107090;1283;58123;-87
2023/10/14 08:04:53;;;;;;;46.10;20.60;;;;;;;;;;107087;1283;61458;-86
2023/10/14 08:10:21;;;;;;;37.70;20.40;;;;;;;;;;107062;1283;59426;-86
2023/10/14 08:12:47;;;;;;;39.60;21.50;;;;;;;;;;107088;1283;58096;-86
2023/10/14 08:15:13;;;;;;;37.10;20.70;;;;;;;;;;107078;1283;58053;-88
2023/10/14 08:17:42;;;;;;;39.30;20.90;;;;;;;;;;107048;1283;57991;-86
2023/10/14 08:23:10;;;;;;;37.50;19.00;;;;;;;;;;107062;1283;58552;-85
2023/10/14 08:25:36;;;;;;;44.10;19.50;;;;;;;;;;107074;1283;58121;-86
2023/10/14 08:43:18;;;;;;;40.10;20.20;;;;;;;;;;107060;1283;58113;-88
2023/10/14 08:45:47;;;;;;;41.20;21.40;;;;;;;;;;107089;1283;59634;-89
2023/10/14 08:48:15;;;;;;;40.20;21.40;;;;;;;;;;106957;1283;60807;-88
2023/10/14 08:50:40;;;;;;;38.90;22.50;;;;;;;;;;106923;1283;59606;-88
2023/10/14 08:53:07;;;;;;;43.90;22.50;;;;;;;;;;106657;1283;58277;-89
2023/10/14 08:55:33;;;;;;;43.50;22.70;;;;;;;;;;106556;1287;58133;-89
2023/10/14 08:58:02;;;;;;;35.90;20.60;;;;;;;;;;106432;1288;58286;-89
2023/10/14 09:00:31;;;;;;;40.50;21.50;;;;;;;;;;106550;1287;60660;-88
2023/10/14 09:02:57;;;;;;;37.60;20.90;;;;;;;;;;106244;1291;60667;-88
2023/10/14 09:05:25;;;;;;;38.30;21.30;;;;;;;;;;106239;1291;58205;-89
2023/10/14 09:07:50;;;;;;;42.40;21.90;;;;;;;;;;106254;1291;58092;-88
2023/10/14 09:13:23;;;;;;;35.60;21.20;;;;;;;;;;106277;1291;59527;-88
2023/10/14 09:32:46;;;;;;;43.10;22.00;;;;;;;;;;104216;1284;600819;-89
2023/10/14 09:35:11;;;;;;;38.30;21.50;;;;;;;;;;106847;1279;191747;-89
2023/10/14 09:37:40;;;;;;;37.60;21.30;;;;;;;;;;107571;1282;58076;-89
2023/10/14 09:40:13;;;;;;;36.90;20.50;;;;;;;;;;107609;1279;58139;-89
2023/10/14 09:48:51;;;;;;;33.10;19.20;;;;;;;;;;102971;1292;601715;-88
2023/10/14 09:51:16;;;;;;;37.90;19.70;;;;;;;;;;103267;1295;60416;-89
2023/10/14 09:53:46;;;;;;;33.20;18.30;;;;;;;;;;102829;1292;60399;-88
2023/10/14 09:56:12;;;;;;;37.50;19.40;;;;;;;;;;103108;1293;60342;-88
2023/10/14 09:58:42;;;;;;;36.50;18.50;;;;;;;;;;103099;1292;60313;-88
2023/10/14 10:01:12;;;;;;;34.60;18.20;;;;;;;;;;103111;1295;60428;-88
2023/10/14 10:04:05;;;;;;;29.60;16.70;;;;;;;;;;103360;1288;600623;-89
2023/10/14 10:06:49;;;;;;;32.60;18.00;;;;;;;;;;103529;1288;60508;-86
2023/10/14 10:09:34;;;;;;;32.00;16.90;;;;;;;;;;103244;1295;60419;-87
2023/10/14 10:12:00;;;;;;;32.50;15.90;;;;;;;;;;103295;1289;60953;-86
2023/10/14 10:14:26;;;;;;;28.80;15.30;;;;;;;;;;102992;1289;60471;-88
2023/10/14 10:16:55;;;;;;;27.30;15.30;;;;;;;;;;102960;1286;367080;-86
2023/10/14 10:19:23;;;;;;;32.80;15.20;;;;;;;;;;103649;1285;60262;-87
2023/10/14 10:22:08;;;;;;;29.50;15.30;;;;;;;;;;103687;1285;60402;-87
2023/10/14 10:24:42;;;;;;;28.80;15.10;;;;;;;;;;103909;1287;60846;-87
2023/10/14 10:27:10;;;;;;;30.90;15.10;;;;;;;;;;104121;1285;61238;-88
2023/10/14 10:29:45;;;;;;;26.50;15.10;;;;;;;;;;103310;1285;60932;-87
2023/10/14 10:32:19;;;;;;;33.70;16.20;;;;;;;;;;103496;1288;60281;-87
2023/10/14 10:38:10;;;;;;;27.10;14.50;;;;;;;;;;103721;1288;61841;-90
2023/10/14 10:44:05;;;;;;;25.80;13.80;;;;;;;;;;104290;1282;601230;-89
2023/10/14 10:46:30;;;;;;;30.50;13.20;;;;;;;;;;104175;1288;60431;-88
2023/10/14 10:48:55;;;;;;;29.80;12.30;;;;;;;;;;104040;1288;60476;-88
2023/10/14 10:51:21;;;;;;;31.20;12.40;;;;;;;;;;104186;1283;60305;-89
2023/10/14 10:53:49;;;;;;;32.60;13.10;;;;;;;;;;104016;1283;60374;-87
2023/10/14 10:56:15;;;;;;;28.60;13.80;;;;;;;;;;104567;1283;60396;-88
2023/10/14 10:58:41;;;;;;;27.60;12.60;;;;;;;;;;103873;1281;323606;-89
2023/10/14 11:01:07;;;;;;;24.10;11.10;;;;;;;;;;107395;1281;58043;-88
2023/10/14 11:03:34;;;;;;;35.70;12.40;;;;;;;;;;107291;1282;69465;-87
2023/10/14 11:06:00;;;;;;;31.90;11.20;;;;;;;;;;107267;1281;58403;-89
2023/10/14 11:11:09;;;;;;;23.50;11.20;;;;;;;;;;107327;1281;58115;-89
2023/10/14 11:13:39;;;;;;;24.60;10.50;;;;;;;;;;107369;1281;58073;-91
2023/10/14 11:16:14;;;;;;;36.40;13.20;;;;;;;;;;107358;1281;60862;-89
2023/10/14 11:40:11;;;;;;;12.70;4.80;;;;;;;;;;107291;1282;58145;-88
2023/10/14 11:42:37;;;;;;;15.70;4.70;;;;;;;;;;107266;1282;61627;-89
2023/10/14 11:51:11;;;;;;;17.40;5.20;;;;;;;;;;107213;1282;58156;-88
2023/10/14 11:59:42;;;;;;;23.60;5.40;;;;;;;;;;107277;1282;60457;-88
2023/10/14 12:08:13;;;;;;;21.90;4.80;;;;;;;;;;107296;1281;58004;-89
2023/10/14 12:10:38;;;;;;;19.20;4.50;;;;;;;;;;107341;1281;58329;-88
2023/10/14 12:19:12;;;;;;;11.30;3.60;;;;;;;;;;107249;1282;58050;-88
2023/10/14 12:24:40;;;;;;;15.10;4.30;;;;;;;;;;107308;1282;59052;-88
2023/10/14 12:27:13;;;;;;;11.20;3.90;;;;;;;;;;107294;1282;58238;-89
2023/10/14 12:29:39;;;;;;;12.00;4.10;;;;;;;;;;107179;1281;59693;-89
2023/10/14 12:32:12;;;;;;;8.50;3.60;;;;;;;;;;107311;1281;58161;-89
2023/10/14 12:34:39;;;;;;;;;;;;;;;;;;107319;1281;58465;-88
2023/10/14 12:43:12;;;;;;;7.50;2.90;;;;;;;;;;107221;1282;59368;-90
2023/10/14 12:48:42;;;;;;;11.80;3.40;;;;;;;;;;107193;1282;58039;-88
2023/10/14 12:51:09;;;;;;;13.30;4.00;;;;;;;;;;106934;1282;62497;-89
2023/10/14 12:53:36;;;;;;;8.40;3.10;;;;;;;;;;107133;1282;60625;-87
2023/10/14 12:56:01;;;;;;;9.20;3.40;;;;;;;;;;107161;1282;58107;-90
2023/10/14 12:58:27;;;;;;;10.60;3.70;;;;;;;;;;106714;1282;58328;-90
2023/10/14 13:00:52;;;;;;;11.70;3.60;;;;;;;;;;107183;1283;58175;-89
2023/10/14 13:03:18;;;;;;;12.20;3.60;;;;;;;;;;106668;1282;58429;-89
2023/10/14 13:05:46;;;;;;;11.40;3.50;;;;;;;;;;106891;1282;60458;-90
2023/10/14 13:08:14;;;;;;;11.90;4.40;;;;;;;;;;107124;1282;58150;-90
2023/10/14 13:13:50;;;;;;;13.10;4.20;;;;;;;;;;107185;1282;60239;-91
2023/10/14 13:16:16;;;;;;;14.10;4.70;;;;;;;;;;107191;1282;60835;-90
2023/10/14 13:18:45;;;;;;;10.60;4.60;;;;;;;;;;107158;1282;60572;-91
2023/10/14 13:21:14;;;;;;;14.30;4.50;;;;;;;;;;106946;1282;58076;-89
2023/10/14 13:23:41;;;;;;;15.60;7.20;;;;;;;;;;107195;1282;58024;-93
2023/10/14 13:26:12;;;;;;;14.70;5.60;;;;;;;;;;107051;1282;61194;-93
2023/10/14 13:28:37;;;;;;;17.30;6.20;;;;;;;;;;106717;1286;60777;-93
2023/10/14 13:31:04;;;;;;;17.80;5.70;;;;;;;;;;106474;1286;58365;-95
2023/10/14 13:36:33;;;;;;;12.50;5.10;;;;;;;;;;106824;1286;58263;-94
2023/10/14 13:42:01;;;;;;;10.20;3.50;;;;;;;;;;106710;1286;59798;-93
2023/10/14 13:44:27;;;;;;;15.20;4.80;;;;;;;;;;106710;1286;58147;-93
2023/10/14 13:49:57;;;;;;;14.20;6.30;;;;;;;;;;106747;1286;58201;-92
2023/10/14 13:52:23;;;;;;;20.50;6.60;;;;;;;;;;106466;1286;60245;-94
2023/10/14 13:54:48;;;;;;;12.20;5.20;;;;;;;;;;106604;1286;58346;-93
2023/10/14 13:57:17;;;;;;;15.10;5.30;;;;;;;;;;106603;1286;58252;-92
2023/10/14 13:59:43;;;;;;;10.60;5.00;;;;;;;;;;106903;1283;58162;-92
2023/10/14 14:02:08;;;;;;;16.40;4.80;;;;;;;;;;107043;1282;58236;-91
2023/10/14 14:07:37;;;;;;;14.40;4.40;;;;;;;;;;107204;1282;59544;-94
2023/10/14 14:10:05;;;;;;;11.90;5.20;;;;;;;;;;106999;1282;58089;-92
2023/10/14 14:12:31;;;;;;;9.60;4.10;;;;;;;;;;107166;1282;58231;-92
2023/10/14 14:14:57;;;;;;;12.40;4.50;;;;;;;;;;106979;1282;58154;-93
2023/10/14 14:17:25;;;;;;;17.60;4.90;;;;;;;;;;107076;1282;57972;-92
2023/10/14 14:19:51;;;;;;;14.20;4.90;;;;;;;;;;106464;1286;60776;-93
2023/10/14 14:22:18;;;;;;;13.30;4.10;;;;;;;;;;106464;1286;58231;-92
2023/10/14 14:24:43;;;;;;;12.50;3.90;;;;;;;;;;106538;1286;58230;-92
2023/10/14 14:27:09;;;;;;;11.60;4.00;;;;;;;;;;106613;1286;58442;-92
2023/10/14 14:29:34;;;;;;;13.60;4.40;;;;;;;;;;106509;1286;58290;-94
2023/10/14 14:31:59;;;;;;;17.50;4.50;;;;;;;;;;106718;1286;58594;-93
2023/10/14 14:34:29;;;;;;;12.60;4.80;;;;;;;;;;106358;1290;58211;-93
2023/10/14 14:46:05;;;;;;;362.60;161.50;;;;;;;;;;106521;1289;59165;-93
2023/10/14 14:48:31;;;;;;;216.30;117.90;;;;;;;;;;106287;1290;58196;-94
2023/10/14 14:50:56;;;;;;;69.90;34.40;;;;;;;;;;106259;1288;58158;-92
2023/10/14 14:53:21;;;;;;;43.50;23.10;;;;;;;;;;106579;1287;58173;-93
2023/10/14 14:55:47;;;;;;;34.10;16.90;;;;;;;;;;106348;1288;58436;-94
2023/10/14 14:58:14;;;;;;;108.40;58.40;;;;;;;;;;106460;1288;58253;-93
2023/10/14 15:00:42;;;;;;;110.60;61.20;;;;;;;;;;106473;1288;58512;-92
2023/10/14 15:03:10;;;;;;;101.90;55.10;;;;;;;;;;106455;1288;59915;-94
2023/10/14 15:05:42;;;;;;;121.70;65.80;;;;;;;;;;106772;1285;60590;-94
2023/10/14 15:11:12;;;;;;;70.70;38.80;;;;;;;;;;106828;1286;58216;-92
2023/10/14 15:13:37;;;;;;;48.70;25.10;;;;;;;;;;106684;1285;58481;-92
2023/10/14 15:16:03;;;;;;;51.70;24.10;;;;;;;;;;106887;1285;58422;-92
2023/10/14 15:18:28;;;;;;;42.50;18.00;;;;;;;;;;106695;1285;58332;-92
2023/10/14 15:20:54;;;;;;;32.30;13.80;;;;;;;;;;107104;1282;58453;-91
2023/10/14 15:23:22;;;;;;;36.70;17.30;;;;;;;;;;106922;1281;58572;-92
2023/10/14 15:25:47;;;;;;;36.30;15.90;;;;;;;;;;107124;1281;58568;-91
2023/10/14 15:28:13;;;;;;;36.20;15.90;;;;;;;;;;107171;1282;58318;-91
2023/10/14 15:30:41;;;;;;;64.30;26.50;;;;;;;;;;107084;1282;58531;-92
2023/10/14 15:36:15;;;;;;;47.90;19.40;;;;;;;;;;107294;1282;58231;-91
2023/10/14 15:38:41;;;;;;;47.70;20.50;;;;;;;;;;107288;1281;60912;-91
2023/10/14 15:41:06;;;;;;;45.80;19.60;;;;;;;;;;106976;1281;58280;-92
2023/10/14 15:43:33;;;;;;;38.60;17.60;;;;;;;;;;107123;1281;58733;-91
2023/10/14 15:46:00;;;;;;;41.20;18.70;;;;;;;;;;106806;1285;59076;-91
2023/10/14 15:48:29;;;;;;;34.00;16.00;;;;;;;;;;106661;1285;58326;-91
2023/10/14 15:50:54;;;;;;;34.00;13.60;;;;;;;;;;106751;1285;62072;-91
2023/10/14 15:53:20;;;;;;;28.90;12.20;;;;;;;;;;106678;1285;58230;-90
2023/10/14 15:55:46;;;;;;;28.90;12.30;;;;;;;;;;106736;1285;58339;-91
2023/10/14 15:58:14;;;;;;;27.30;12.20;;;;;;;;;;106719;1285;58253;-91
2023/10/14 16:00:52;;;;;;;21.70;10.90;;;;;;;;;;106608;1285;58440;-90
2023/10/14 16:03:20;;;;;;;34.50;10.80;;;;;;;;;;106360;1288;61955;-91
2023/10/14 16:05:46;;;;;;;44.20;13.20;;;;;;;;;;106307;1287;59517;-89
2023/10/14 16:08:16;;;;;;;31.00;11.20;;;;;;;;;;106383;1287;58346;-91
2023/10/14 16:10:45;;;;;;;23.00;10.40;;;;;;;;;;106499;1287;58386;-91
2023/10/14 16:13:10;;;;;;;19.70;9.40;;;;;;;;;;106456;1289;58148;-91
2023/10/14 16:15:36;;;;;;;22.70;8.70;;;;;;;;;;106556;1287;58342;-91
2023/10/14 16:18:02;;;;;;;25.80;9.20;;;;;;;;;;106831;1283;58287;-90
2023/10/14 16:20:28;;;;;;;23.00;8.80;;;;;;;;;;106626;1283;59095;-88
2023/10/14 16:22:55;;;;;;;60.00;10.70;;;;;;;;;;106894;1283;58595;-91
2023/10/14 16:25:21;;;;;;;20.90;8.80;;;;;;;;;;106878;1283;58414;-90
2023/10/14 16:27:47;;;;;;;20.60;8.70;;;;;;;;;;106898;1283;58247;-89
2023/10/14 16:30:16;;;;;;;19.10;8.30;;;;;;;;;;106858;1283;58755;-88
2023/10/14 16:32:46;;;;;;;21.40;8.70;;;;;;;;;;106862;1286;58273;-89
2023/10/14 16:35:16;;;;;;;22.30;8.60;;;;;;;;;;106845;1283;58465;-89
2023/10/14 16:40:44;;;;;;;22.80;9.80;;;;;;;;;;107086;1283;60960;-89
2023/10/14 16:46:16;;;;;;;19.70;9.50;;;;;;;;;;107109;1282;58326;-88
2023/10/14 16:48:42;;;;;;;29.50;9.90;;;;;;;;;;106876;1282;58251;-89
2023/10/14 16:51:10;;;;;;;23.80;9.50;;;;;;;;;;106947;1282;58642;-90
2023/10/14 16:53:35;;;;;;;26.10;9.30;;;;;;;;;;107148;1282;60910;-89
2023/10/14 16:56:01;;;;;;;25.40;9.60;;;;;;;;;;106588;1282;58525;-89
2023/10/14 16:58:26;;;;;;;20.10;8.90;;;;;;;;;;106963;1282;58590;-89
2023/10/14 17:00:54;;;;;;;22.70;9.50;;;;;;;;;;106827;1282;58225;-88
2023/10/14 17:03:22;;;;;;;25.80;10.30;;;;;;;;;;106936;1282;58829;-89
2023/10/14 17:05:48;;;;;;;21.00;9.80;;;;;;;;;;106687;1282;59131;-88
2023/10/14 17:08:15;;;;;;;23.20;9.00;;;;;;;;;;106836;1282;58318;-89
2023/10/14 17:10:43;;;;;;;25.70;8.90;;;;;;;;;;107156;1282;58595;-88
2023/10/14 17:13:08;;;;;;;25.90;9.10;;;;;;;;;;106882;1282;58362;-88
2023/10/14 17:31:29;;;;;;;25.70;8.90;;;;;;;;;;103647;1289;60994;-88
2023/10/14 17:33:58;;;;;;;20.80;8.60;;;;;;;;;;103529;1292;60460;-89
2023/10/14 17:36:40;;;;;;;19.30;8.30;;;;;;;;;;102925;1296;600837;-88
2023/10/14 17:39:06;;;;;;;18.20;8.30;;;;;;;;;;103179;1298;60492;-88
2023/10/14 17:41:33;;;;;;;14.50;7.70;;;;;;;;;;106327;1289;58070;-88
2023/10/14 17:44:01;;;;;;;13.60;7.90;;;;;;;;;;106469;1290;58154;-89
2023/10/14 17:46:27;;;;;;;22.10;8.30;;;;;;;;;;106318;1289;58106;-89
2023/10/14 17:51:55;;;;;;;16.20;8.20;;;;;;;;;;99199;1288;58012;-90
2023/10/14 17:54:20;;;;;;;17.10;8.00;;;;;;;;;;106371;1289;58081;-89
2023/10/14 17:56:47;;;;;;;25.50;8.40;;;;;;;;;;106467;1287;58029;-89
2023/10/14 17:59:14;;;;;;;17.60;8.30;;;;;;;;;;106274;1288;58240;-88
2023/10/14 18:01:41;;;;;;;20.60;8.90;;;;;;;;;;106455;1289;58299;-88
2023/10/14 18:04:07;;;;;;;18.90;9.10;;;;;;;;;;106308;1289;58610;-89
2023/10/14 18:06:34;;;;;;;22.10;9.00;;;;;;;;;;106477;1289;58138;-88
2023/10/14 18:12:03;;;;;;;21.40;8.70;;;;;;;;;;106643;1288;58171;-89
2023/10/14 18:14:29;;;;;;;20.00;8.40;;;;;;;;;;106314;1287;58135;-88
2023/10/14 18:16:54;;;;;;;25.00;8.60;;;;;;;;;;106664;1288;58141;-89
2023/10/14 18:19:21;;;;;;;20.60;8.40;;;;;;;;;;106500;1288;58414;-88
2023/10/14 18:21:47;;;;;;;27.10;8.70;;;;;;;;;;106428;1289;58046;-89
2023/10/14 18:24:12;;;;;;;20.50;7.40;;;;;;;;;;106483;1287;58503;-88
2023/10/14 18:26:38;;;;;;;21.60;8.60;;;;;;;;;;106664;1285;58100;-88
2023/10/14 18:29:04;;;;;;;20.80;8.20;;;;;;;;;;106513;1285;60689;-88
2023/10/14 18:31:30;;;;;;;17.50;8.00;;;;;;;;;;106481;1286;58290;-88
2023/10/14 18:33:57;;;;;;;16.80;7.80;;;;;;;;;;106754;1286;58113;-88
2023/10/14 18:36:22;;;;;;;16.60;7.70;;;;;;;;;;106623;1285;58233;-88
2023/10/14 18:38:48;;;;;;;19.70;7.50;;;;;;;;;;106600;1288;58201;-89
2023/10/14 18:44:17;;;;;;;16.40;7.50;;;;;;;;;;106732;1285;58439;-89
2023/10/14 18:46:45;;;;;;;17.40;7.90;;;;;;;;;;106326;1286;58180;-89
2023/10/14 18:49:11;;;;;;;16.40;6.40;;;;;;;;;;106573;1286;58483;-89
2023/10/14 18:51:37;;;;;;;16.90;7.00;;;;;;;;;;106616;1285;58153;-90
2023/10/14 18:54:02;;;;;;;16.10;6.90;;;;;;;;;;106819;1285;58634;-88
2023/10/14 18:56:30;;;;;;;13.80;5.60;;;;;;;;;;106458;1286;58157;-90
2023/10/14 18:58:55;;;;;;;17.60;7.10;;;;;;;;;;106592;1285;58288;-92
2023/10/14 19:01:21;;;;;;;16.60;5.70;;;;;;;;;;106639;1286;58113;-89
2023/10/14 19:06:51;;;;;;;13.70;6.20;;;;;;;;;;106767;1285;59617;-89
2023/10/14 19:09:21;;;;;;;19.60;6.40;;;;;;;;;;106785;1285;58159;-90
2023/10/14 19:11:49;;;;;;;12.40;5.80;;;;;;;;;;106570;1285;58352;-89
2023/10/14 19:14:17;;;;;;;14.60;6.20;;;;;;;;;;106594;1285;59715;-88
2023/10/14 19:16:45;;;;;;;12.90;6.30;;;;;;;;;;106551;1288;61439;-89
2023/10/14 19:19:13;;;;;;;13.50;5.20;;;;;;;;;;106575;1288;60731;-89
2023/10/14 19:21:39;;;;;;;15.50;6.20;;;;;;;;;;106438;1289;58140;-89
2023/10/14 19:24:05;;;;;;;13.50;5.70;;;;;;;;;;106418;1289;58272;-90
2023/10/14 19:26:42;;;;;;;17.10;6.70;;;;;;;;;;106460;1288;58504;-89
2023/10/14 19:29:07;;;;;;;13.20;6.60;;;;;;;;;;106548;1288;60714;-90
2023/10/14 19:34:35;;;;;;;18.60;7.50;;;;;;;;;;106551;1288;58216;-89
2023/10/14 19:37:05;;;;;;;19.60;7.20;;;;;;;;;;106436;1289;58122;-89
2023/10/14 19:39:30;;;;;;;19.10;7.70;;;;;;;;;;106425;1289;61156;-89
2023/10/14 19:41:55;;;;;;;14.80;7.60;;;;;;;;;;106478;1288;58188;-90
2023/10/14 19:47:24;;;;;;;14.20;6.50;;;;;;;;;;106543;1287;58221;-89
2023/10/14 19:49:49;;;;;;;17.60;6.40;;;;;;;;;;106656;1288;58048;-89
2023/10/14 19:52:15;;;;;;;17.30;7.30;;;;;;;;;;106723;1288;58302;-88
2023/10/14 19:54:40;;;;;;;13.80;6.90;;;;;;;;;;106678;1287;58260;-88
2023/10/14 19:57:06;;;;;;;15.60;7.20;;;;;;;;;;106557;1286;58163;-89
2023/10/14 20:05:46;;;;;;;17.70;6.00;;;;;;;;;;106711;1287;60670;-88
2023/10/14 20:08:22;;;;;;;13.10;6.00;;;;;;;;;;106527;1288;60524;-88
2023/10/14 20:10:47;;;;;;;17.00;6.90;;;;;;;;;;106526;1288;58275;-88
2023/10/14 20:13:17;;;;;;;14.20;6.10;;;;;;;;;;106523;1287;58234;-88
2023/10/14 20:18:46;;;;;;;12.70;5.80;;;;;;;;;;106685;1286;60711;-89
2023/10/14 20:24:15;;;;;;;13.10;5.70;;;;;;;;;;106674;1288;58112;-88
2023/10/14 20:26:40;;;;;;;9.70;5.60;;;;;;;;;;106573;1286;58123;-88
2023/10/14 20:29:06;;;;;;;13.70;5.70;;;;;;;;;;106363;1286;58268;-88
2023/10/14 20:31:31;;;;;;;13.20;5.80;;;;;;;;;;106575;1288;58512;-88
2023/10/14 20:34:00;;;;;;;10.90;5.80;;;;;;;;;;106665;1287;58162;-88
2023/10/14 20:36:26;;;;;;;12.10;6.00;;;;;;;;;;106743;1285;58120;-89
2023/10/14 20:38:52;;;;;;;12.10;6.10;;;;;;;;;;106468;1285;58646;-88
2023/10/14 20:41:18;;;;;;;12.50;5.90;;;;;;;;;;106442;1285;58966;-88
2023/10/14 20:43:44;;;;;;;10.10;5.50;;;;;;;;;;106620;1285;58168;-88
2023/10/14 20:46:09;;;;;;;12.00;5.80;;;;;;;;;;106585;1285;58400;-88
2023/10/14 20:48:36;;;;;;;12.20;6.20;;;;;;;;;;106623;1285;58161;-88
2023/10/14 20:51:01;;;;;;;10.50;5.60;;;;;;;;;;106597;1285;60032;-89
2023/10/14 20:53:26;;;;;;;14.30;6.10;;;;;;;;;;106454;1291;58441;-89
2023/10/14 20:55:52;;;;;;;14.30;6.00;;;;;;;;;;106753;1285;58601;-89
2023/10/14 20:58:17;;;;;;;17.10;6.50;;;;;;;;;;106563;1285;58206;-89
2023/10/14 21:06:50;;;;;;;14.00;6.50;;;;;;;;;;106764;1285;58348;-88
2023/10/14 21:09:17;;;;;;;13.00;6.00;;;;;;;;;;106594;1285;58132;-88
2023/10/14 21:11:42;;;;;;;16.80;6.70;;;;;;;;;;106766;1285;58554;-87
2023/10/14 21:14:14;;;;;;;13.60;6.20;;;;;;;;;;106478;1285;58168;-88
2023/10/14 21:16:40;;;;;;;15.40;6.70;;;;;;;;;;106539;1286;60666;-88
2023/10/14 21:19:10;;;;;;;15.00;7.00;;;;;;;;;;106481;1285;58247;-89
2023/10/14 21:21:36;;;;;;;11.80;6.60;;;;;;;;;;106571;1285;58075;-88
2023/10/14 21:27:07;;;;;;;16.30;6.80;;;;;;;;;;106818;1285;60172;-88